Time;durP1;ratioP1;P1;durP2;ratioP2;P2;SDS_P1;SDS_P2;PMS_P1;PMS_P2;Temp;Humidity;BMP_temperature;BMP_pressure;BME280_temperature;BME280_humidity;BME280_pressure;Samples;Min_cycle;Max_cycle;Signal;HPM_P1;HPM_P2
2021/10/11 00:01:46;;;;;;;1.53;1.20;;;10.30;98.20;;;;;;4989318;28;20498;-78
2021/10/11 00:04:13;;;;;;;1.50;1.20;;;10.30;98.20;;;;;;5002457;28;20484;-78
2021/10/11 00:06:40;;;;;;;1.70;1.60;;;10.30;98.20;;;;;;4986120;28;20556;-77
2021/10/11 00:09:06;;;;;;;1.53;1.20;;;10.20;98.20;;;;;;5001765;28;20496;-78
2021/10/11 00:11:34;;;;;;;1.60;1.10;;;10.20;98.20;;;;;;4988413;28;20475;-77
2021/10/11 00:14:02;;;;;;;1.50;1.20;;;10.20;98.20;;;;;;4999443;28;20851;-77
2021/10/11 00:16:29;;;;;;;1.50;1.10;;;10.10;98.20;;;;;;4984026;28;21009;-76
2021/10/11 00:18:56;;;;;;;1.53;1.20;;;10.10;98.20;;;;;;5003842;28;20883;-78
2021/10/11 00:21:23;;;;;;;1.50;1.10;;;10.10;98.20;;;;;;4988462;28;20493;-78
2021/10/11 00:23:50;;;;;;;1.53;1.10;;;10.10;98.20;;;;;;5002577;28;20462;-76
2021/10/11 00:26:16;;;;;;;1.50;1.10;;;10.00;98.20;;;;;;4983487;28;20905;-79
2021/10/11 00:28:43;;;;;;;1.53;1.20;;;10.00;98.20;;;;;;5001753;28;20481;-76
2021/10/11 00:31:11;;;;;;;1.57;1.20;;;10.00;98.20;;;;;;4985203;28;20987;-78
2021/10/11 00:33:38;;;;;;;1.50;1.10;;;10.00;98.20;;;;;;4998404;28;20491;-75
2021/10/11 00:36:05;;;;;;;1.57;1.30;;;9.90;98.20;;;;;;4983713;28;20461;-78
2021/10/11 00:38:32;;;;;;;1.53;1.20;;;9.90;98.20;;;;;;5006560;28;20546;-76
2021/10/11 00:40:59;;;;;;;1.50;1.10;;;9.90;98.20;;;;;;4981223;28;20465;-77
2021/10/11 00:43:26;;;;;;;1.57;1.20;;;9.90;98.20;;;;;;5005650;28;20464;-77
2021/10/11 00:45:53;;;;;;;1.53;1.20;;;9.80;98.20;;;;;;4982194;28;20472;-79
2021/10/11 00:48:21;;;;;;;1.53;1.10;;;9.80;98.20;;;;;;5006725;28;20522;-80
2021/10/11 00:50:48;;;;;;;1.50;1.20;;;9.90;98.20;;;;;;4981507;28;20519;-77
2021/10/11 00:53:15;;;;;;;1.53;1.20;;;9.90;98.20;;;;;;5010680;28;20463;-77
2021/10/11 00:55:42;;;;;;;1.60;1.20;;;9.90;98.20;;;;;;4986904;28;20465;-77
2021/10/11 00:58:09;;;;;;;1.57;1.20;;;9.90;98.20;;;;;;4994507;28;20496;-76
2021/10/11 01:00:36;;;;;;;1.53;1.20;;;9.90;98.20;;;;;;4991677;28;20480;-77
2021/10/11 01:03:03;;;;;;;1.53;1.20;;;10.00;98.20;;;;;;5003529;28;20483;-79
2021/10/11 01:05:31;;;;;;;1.70;1.50;;;10.00;98.20;;;;;;4988360;28;21302;-76
2021/10/11 01:07:58;;;;;;;1.57;1.20;;;10.10;98.20;;;;;;4990735;28;20491;-77
2021/10/11 01:10:25;;;;;;;1.60;1.20;;;10.10;98.20;;;;;;4982769;28;20460;-78
2021/10/11 01:12:52;;;;;;;1.57;1.20;;;10.20;98.20;;;;;;4992962;28;20884;-77
2021/10/11 01:15:18;;;;;;;1.53;1.20;;;10.20;98.20;;;;;;4980591;28;20469;-79
2021/10/11 01:17:45;;;;;;;1.53;1.10;;;10.20;98.20;;;;;;4987300;28;20479;-77
2021/10/11 01:20:13;;;;;;;1.50;1.20;;;10.20;98.20;;;;;;4990837;28;20489;-76
2021/10/11 01:22:42;;;;;;;1.60;1.20;;;10.20;98.20;;;;;;4995046;28;20480;-76
2021/10/11 01:25:12;;;;;;;1.53;1.20;;;10.30;98.20;;;;;;4998774;28;20495;-76
2021/10/11 01:27:39;;;;;;;1.57;1.10;;;10.30;98.20;;;;;;4996339;28;20476;-78
2021/10/11 01:30:09;;;;;;;1.53;1.20;;;10.30;98.20;;;;;;4994581;28;20462;-78
2021/10/11 01:32:36;;;;;;;1.53;1.13;;;10.40;98.20;;;;;;4997386;28;20480;-77
2021/10/11 01:35:03;;;;;;;1.60;1.20;;;10.40;98.20;;;;;;4994284;28;20468;-78
2021/10/11 01:37:31;;;;;;;1.57;1.20;;;10.40;98.20;;;;;;4993250;28;20488;-79
2021/10/11 01:39:58;;;;;;;1.57;1.20;;;10.50;98.20;;;;;;4994688;28;20485;-78
2021/10/11 01:42:24;;;;;;;1.53;1.20;;;10.50;98.20;;;;;;4994518;28;21225;-78
2021/10/11 01:44:51;;;;;;;1.57;1.10;;;10.60;98.20;;;;;;4995999;28;20653;-77
2021/10/11 01:47:18;;;;;;;1.50;1.20;;;10.60;98.20;;;;;;4989521;28;20484;-79
2021/10/11 01:49:45;;;;;;;1.57;1.10;;;10.60;98.20;;;;;;4996197;28;20480;-77
2021/10/11 01:52:12;;;;;;;1.57;1.17;;;10.60;98.20;;;;;;4997077;28;20562;-77
2021/10/11 01:54:40;;;;;;;1.60;1.30;;;10.70;98.20;;;;;;5001101;28;20465;-76
2021/10/11 01:57:06;;;;;;;1.53;1.10;;;10.70;98.20;;;;;;4989956;28;20491;-77
2021/10/11 01:59:33;;;;;;;1.57;1.20;;;10.70;98.20;;;;;;5001079;28;20511;-77
2021/10/11 02:02:02;;;;;;;1.53;1.17;;;10.70;98.20;;;;;;4988239;28;20479;-76
2021/10/11 02:04:29;;;;;;;1.60;1.20;;;10.70;98.20;;;;;;4993498;28;20469;-78
2021/10/11 02:06:56;;;;;;;1.50;1.20;;;10.80;98.20;;;;;;4991208;28;20476;-77
2021/10/11 02:09:23;;;;;;;1.57;1.20;;;10.80;98.20;;;;;;5010255;28;20567;-76
2021/10/11 02:11:51;;;;;;;1.53;1.20;;;10.80;98.20;;;;;;4993708;28;20475;-77
2021/10/11 02:14:17;;;;;;;1.50;1.17;;;10.90;98.20;;;;;;5013200;28;20475;-77
2021/10/11 02:16:44;;;;;;;1.50;1.00;;;10.90;98.20;;;;;;4994066;28;20480;-76
2021/10/11 02:19:11;;;;;;;1.57;1.10;;;11.00;98.20;;;;;;5003071;28;20499;-77
2021/10/11 02:21:38;;;;;;;1.50;1.10;;;11.00;98.20;;;;;;4989815;28;21037;-76
2021/10/11 02:24:05;;;;;;;1.53;1.10;;;11.00;98.20;;;;;;5002511;28;20843;-77
2021/10/11 02:26:32;;;;;;;1.50;1.10;;;11.00;98.20;;;;;;4991629;28;20482;-77
2021/10/11 02:29:00;;;;;;;1.53;1.10;;;11.10;98.20;;;;;;5006821;28;20481;-77
2021/10/11 02:31:27;;;;;;;1.57;1.20;;;11.10;98.20;;;;;;4991216;28;20476;-77
2021/10/11 02:33:56;;;;;;;1.57;1.10;;;11.10;98.20;;;;;;5003895;28;20461;-77
2021/10/11 02:36:22;;;;;;;1.53;1.10;;;11.10;98.20;;;;;;4989499;28;20638;-77
2021/10/11 02:38:49;;;;;;;1.50;1.10;;;11.10;98.20;;;;;;5003668;28;20492;-78
2021/10/11 02:41:16;;;;;;;1.50;1.10;;;11.10;98.20;;;;;;4993051;28;20482;-76
2021/10/11 02:43:44;;;;;;;1.53;1.10;;;11.20;98.20;;;;;;5003467;28;20465;-75
2021/10/11 02:46:12;;;;;;;1.50;1.10;;;11.10;98.20;;;;;;4984532;28;20472;-76
2021/10/11 02:48:38;;;;;;;1.53;1.10;;;11.20;98.20;;;;;;5004815;28;20485;-77
2021/10/11 02:51:05;;;;;;;1.60;1.43;;;11.20;98.20;;;;;;4992575;28;20461;-77
2021/10/11 02:53:32;;;;;;;1.53;1.03;;;11.10;98.20;;;;;;5009962;28;20461;-78
2021/10/11 02:55:59;;;;;;;1.50;1.10;;;11.10;98.20;;;;;;4986642;28;21078;-76
2021/10/11 02:58:26;;;;;;;1.53;1.10;;;11.10;98.20;;;;;;5003665;28;20496;-78
2021/10/11 03:00:52;;;;;;;1.60;1.10;;;11.10;98.20;;;;;;4984924;28;20539;-78
2021/10/11 03:03:21;;;;;;;1.53;1.10;;;11.10;98.20;;;;;;5014848;28;20998;-76
2021/10/11 03:05:48;;;;;;;1.53;1.17;;;11.10;98.20;;;;;;4983899;28;20472;-78
2021/10/11 03:08:14;;;;;;;1.50;1.10;;;11.10;98.20;;;;;;5014216;28;20520;-77
2021/10/11 03:10:41;;;;;;;1.57;1.10;;;11.10;98.20;;;;;;4992115;28;20468;-77
2021/10/11 03:13:08;;;;;;;1.53;1.10;;;11.20;98.20;;;;;;4993637;28;20496;-79
2021/10/11 03:15:34;;;;;;;1.60;1.30;;;11.20;98.20;;;;;;4991591;28;20845;-77
2021/10/11 03:18:01;;;;;;;1.53;1.10;;;11.10;98.20;;;;;;5001670;28;20484;-79
2021/10/11 03:20:29;;;;;;;1.50;1.10;;;11.10;98.20;;;;;;4988305;28;20652;-79
2021/10/11 03:22:56;;;;;;;1.53;1.10;;;11.10;98.20;;;;;;4996389;28;20488;-77
2021/10/11 03:25:23;;;;;;;1.53;1.03;;;11.10;98.20;;;;;;4998062;28;20948;-78
2021/10/11 03:27:50;;;;;;;1.53;1.10;;;11.10;98.20;;;;;;5004021;28;20499;-77
2021/10/11 03:30:16;;;;;;;1.57;1.10;;;11.10;98.20;;;;;;4992217;28;20461;-78
2021/10/11 03:32:43;;;;;;;1.60;1.20;;;11.10;98.20;;;;;;5001512;28;21014;-78
2021/10/11 03:35:10;;;;;;;1.50;1.10;;;11.20;98.20;;;;;;4998643;28;20472;-79
2021/10/11 03:37:38;;;;;;;1.50;1.13;;;11.10;98.20;;;;;;4994267;28;20853;-76
2021/10/11 03:40:06;;;;;;;1.50;1.10;;;11.10;98.20;;;;;;4992847;28;20485;-76
2021/10/11 03:42:33;;;;;;;1.53;1.20;;;11.10;98.20;;;;;;4997062;28;20518;-77
2021/10/11 03:44:59;;;;;;;1.63;1.27;;;11.10;98.20;;;;;;4999242;28;20488;-80
2021/10/11 03:47:26;;;;;;;1.60;1.20;;;11.10;98.20;;;;;;4994519;28;20546;-80
2021/10/11 03:49:53;;;;;;;1.53;1.10;;;11.00;98.20;;;;;;5004266;28;20488;-76
2021/10/11 03:52:20;;;;;;;1.53;1.17;;;11.00;98.20;;;;;;4992362;28;20495;-79
2021/10/11 03:54:48;;;;;;;1.60;1.20;;;11.00;98.20;;;;;;4995257;28;20477;-79
2021/10/11 03:57:15;;;;;;;1.60;1.23;;;10.90;98.20;;;;;;4994542;28;20566;-79
2021/10/11 03:59:41;;;;;;;1.53;1.10;;;10.90;98.20;;;;;;5005699;28;20500;-79
2021/10/11 04:02:08;;;;;;;1.53;1.10;;;11.00;98.20;;;;;;4989071;28;20503;-79
2021/10/11 04:04:36;;;;;;;1.53;1.10;;;10.90;98.20;;;;;;5005999;28;20459;-78
2021/10/11 04:07:06;;;;;;;1.50;1.10;;;10.90;98.20;;;;;;4993912;28;20479;-82
2021/10/11 04:09:33;;;;;;;1.57;1.10;;;10.80;98.20;;;;;;5002018;28;20874;-78
2021/10/11 04:12:07;;;;;;;1.50;1.10;;;10.80;98.20;;;;;;4989345;28;20475;-78
2021/10/11 04:14:34;;;;;;;1.60;1.20;;;10.80;98.20;;;;;;5003092;28;20461;-79
2021/10/11 04:17:01;;;;;;;1.53;1.10;;;10.80;98.20;;;;;;4997960;28;20827;-78
2021/10/11 04:19:27;;;;;;;1.53;1.10;;;10.80;98.20;;;;;;4998640;28;20484;-78
2021/10/11 04:21:54;;;;;;;1.57;1.10;;;10.80;98.20;;;;;;5001942;28;20475;-77
2021/10/11 04:24:21;;;;;;;1.50;1.20;;;10.80;98.20;;;;;;5006118;28;20469;-77
2021/10/11 04:26:48;;;;;;;1.50;1.00;;;10.80;98.20;;;;;;4986608;28;20472;-79
2021/10/11 04:29:16;;;;;;;1.93;1.73;;;10.80;98.20;;;;;;5004305;28;20833;-79
2021/10/11 04:31:43;;;;;;;1.57;1.10;;;10.80;98.20;;;;;;4996923;28;20476;-77
2021/10/11 04:34:09;;;;;;;1.60;1.20;;;10.80;98.20;;;;;;5003754;28;20464;-78
2021/10/11 04:36:36;;;;;;;1.50;1.10;;;10.90;98.20;;;;;;4991728;28;20506;-79
2021/10/11 04:39:03;;;;;;;1.50;1.10;;;10.90;98.20;;;;;;5005849;28;20484;-80
2021/10/11 04:41:30;;;;;;;1.57;1.10;;;11.00;98.20;;;;;;4985935;28;21009;-79
2021/10/11 04:43:58;;;;;;;1.57;1.20;;;11.00;98.20;;;;;;5002121;28;20457;-78
2021/10/11 04:46:27;;;;;;;1.60;1.20;;;11.00;98.20;;;;;;4987310;28;20537;-78
2021/10/11 04:48:53;;;;;;;1.53;1.10;;;11.00;98.20;;;;;;5007293;28;20531;-78
2021/10/11 04:51:21;;;;;;;1.53;1.10;;;11.00;98.20;;;;;;4994926;28;20859;-77
2021/10/11 04:53:48;;;;;;;1.50;1.20;;;11.10;98.20;;;;;;4999312;28;20526;-79
2021/10/11 04:56:14;;;;;;;1.53;1.10;;;11.10;98.20;;;;;;4995324;28;20989;-77
2021/10/11 04:58:41;;;;;;;1.50;1.10;;;11.10;98.20;;;;;;5010420;28;20755;-79
2021/10/11 05:01:08;;;;;;;1.53;1.10;;;11.00;98.20;;;;;;4984330;28;20483;-78
2021/10/11 05:03:36;;;;;;;1.57;1.20;;;11.00;98.20;;;;;;4998203;28;20476;-78
2021/10/11 05:06:03;;;;;;;1.53;1.10;;;11.00;98.20;;;;;;4982414;28;21090;-79
2021/10/11 05:08:31;;;;;;;1.53;1.10;;;11.00;98.20;;;;;;5003033;28;20662;-78
2021/10/11 05:10:58;;;;;;;1.50;1.10;;;11.00;98.20;;;;;;4982417;28;20476;-78
2021/10/11 05:13:25;;;;;;;1.57;1.10;;;11.00;98.20;;;;;;5020474;28;20460;-78
2021/10/11 05:15:52;;;;;;;1.53;1.20;;;11.10;98.20;;;;;;4985740;28;20512;-80
2021/10/11 05:18:19;;;;;;;2.63;2.43;;;11.10;98.20;;;;;;5020559;28;21056;-78
2021/10/11 05:20:50;;;;;;;1.50;1.10;;;11.10;98.20;;;;;;4991138;28;20500;-77
2021/10/11 05:23:20;;;;;;;1.50;1.10;;;11.10;98.20;;;;;;5019898;28;20476;-77
2021/10/11 05:28:35;;;;;;;1.53;1.10;;;11.10;98.20;;;;;;4944831;28;20484;-78
2021/10/11 05:31:06;;;;;;;1.50;1.10;;;11.20;98.20;;;;;;4991407;28;20454;-79
2021/10/11 05:33:45;;;;;;;1.53;1.07;;;11.20;98.20;;;;;;5014995;28;20480;-79
2021/10/11 05:36:17;;;;;;;1.50;1.10;;;11.20;98.20;;;;;;4992397;28;20955;-79
2021/10/11 05:38:51;;;;;;;1.60;1.10;;;11.20;98.20;;;;;;5014286;28;20511;-77
2021/10/11 05:41:21;;;;;;;1.57;1.17;;;11.20;98.20;;;;;;4995713;28;20494;-77
2021/10/11 05:43:53;;;;;;;1.53;1.10;;;11.30;98.20;;;;;;5013932;28;20457;-79
2021/10/11 05:46:28;;;;;;;1.53;1.10;;;11.30;98.20;;;;;;5003047;28;20480;-78
2021/10/11 05:49:03;;;;;;;1.53;1.10;;;11.30;98.20;;;;;;5014803;28;20486;-79
2021/10/11 05:54:30;;;;;;;2.17;1.97;;;11.40;98.20;;;;;;5009816;28;20476;-79
2021/10/11 05:57:04;;;;;;;1.53;1.10;;;11.40;98.20;;;;;;4997781;28;20483;-80
2021/10/11 05:59:48;;;;;;;1.50;1.10;;;11.40;98.20;;;;;;5004426;28;21077;-78
2021/10/11 06:02:57;;;;;;;1.57;1.10;;;11.40;98.20;;;;;;4976233;28;20536;-80
2021/10/11 06:05:55;;;;;;;1.53;1.10;;;11.40;98.20;;;;;;4938216;29;20487;-81
2021/10/11 06:08:35;;;;;;;1.53;1.10;;;11.40;98.20;;;;;;4934793;28;20484;-79
2021/10/11 06:11:08;;;;;;;2.03;1.83;;;11.40;98.20;;;;;;4986327;28;20460;-82
2021/10/11 06:13:36;;;;;;;1.60;1.20;;;11.50;98.20;;;;;;5009486;28;20960;-78
2021/10/11 06:19:02;;;;;;;1.60;1.30;;;11.50;98.20;;;;;;4978088;28;20495;-77
2021/10/11 06:21:29;;;;;;;1.50;1.03;;;11.50;98.20;;;;;;4986848;28;20496;-77
2021/10/11 06:23:58;;;;;;;1.53;1.10;;;11.60;98.20;;;;;;4997296;28;20493;-77
2021/10/11 06:26:25;;;;;;;1.73;1.47;;;11.60;98.20;;;;;;4990019;28;20487;-78
2021/10/11 06:28:52;;;;;;;1.53;1.10;;;11.60;98.20;;;;;;5003758;28;20572;-78
2021/10/11 06:31:19;;;;;;;1.53;1.10;;;11.60;98.20;;;;;;4983316;28;20491;-78
2021/10/11 06:33:46;;;;;;;1.53;1.10;;;11.60;98.20;;;;;;5003516;28;20468;-77
2021/10/11 06:36:14;;;;;;;1.57;1.17;;;11.70;98.20;;;;;;4980108;28;20480;-76
2021/10/11 06:38:40;;;;;;;1.53;1.10;;;11.70;98.20;;;;;;5010760;28;20489;-78
2021/10/11 06:41:09;;;;;;;1.60;1.20;;;11.70;98.20;;;;;;4983804;28;20510;-78
2021/10/11 06:43:36;;;;;;;1.57;1.07;;;11.80;98.20;;;;;;5009818;28;20559;-78
2021/10/11 06:46:03;;;;;;;1.50;1.10;;;11.80;98.20;;;;;;4988175;28;20560;-80
2021/10/11 06:48:30;;;;;;;1.50;1.10;;;11.80;98.20;;;;;;5007130;28;20632;-79
2021/10/11 06:50:57;;;;;;;1.50;1.00;;;11.90;98.20;;;;;;4981221;28;20902;-76
2021/10/11 06:53:24;;;;;;;1.57;1.10;;;11.90;98.20;;;;;;5012748;28;20551;-80
2021/10/11 06:55:51;;;;;;;1.53;1.10;;;12.00;98.20;;;;;;4980429;28;21043;-79
2021/10/11 06:58:20;;;;;;;1.57;1.10;;;12.00;98.20;;;;;;5005570;28;20571;-77
2021/10/11 07:00:47;;;;;;;1.53;1.10;;;12.10;98.20;;;;;;4981192;28;20481;-79
2021/10/11 07:03:15;;;;;;;1.53;1.10;;;12.10;98.20;;;;;;5007585;28;20475;-79
2021/10/11 07:05:42;;;;;;;1.60;1.20;;;12.20;98.20;;;;;;4992305;28;20476;-78
2021/10/11 07:08:10;;;;;;;1.60;1.10;;;12.20;98.20;;;;;;5001411;28;20481;-78
2021/10/11 07:10:37;;;;;;;1.57;1.10;;;12.30;98.20;;;;;;4992333;28;20461;-78
2021/10/11 07:13:05;;;;;;;1.50;1.10;;;12.40;98.20;;;;;;5002587;28;20808;-77
2021/10/11 07:15:34;;;;;;;1.53;1.10;;;12.40;98.20;;;;;;4989457;28;20497;-77
2021/10/11 07:18:01;;;;;;;1.57;1.10;;;12.40;98.20;;;;;;5002156;28;20480;-79
2021/10/11 07:20:28;;;;;;;1.50;1.00;;;12.50;98.20;;;;;;4993907;28;20489;-77
2021/10/11 07:22:55;;;;;;;1.53;1.03;;;12.50;98.20;;;;;;5002675;28;20515;-79
2021/10/11 07:25:23;;;;;;;1.53;1.10;;;12.50;98.20;;;;;;4994561;28;20725;-77
2021/10/11 07:27:50;;;;;;;1.50;1.10;;;12.60;98.20;;;;;;5002677;28;20903;-80
2021/10/11 07:30:17;;;;;;;1.57;1.00;;;12.60;98.20;;;;;;4993558;28;20469;-77
2021/10/11 07:32:47;;;;;;;1.53;1.10;;;12.70;98.20;;;;;;5003983;28;20483;-77
2021/10/11 07:35:14;;;;;;;1.50;1.03;;;12.70;98.20;;;;;;4992613;28;20488;-78
2021/10/11 07:37:41;;;;;;;1.57;1.00;;;12.90;98.20;;;;;;4999236;28;20495;-78
2021/10/11 07:40:09;;;;;;;1.53;1.00;;;13.00;98.20;;;;;;4995302;28;20480;-79
2021/10/11 07:42:36;;;;;;;1.53;1.10;;;13.00;98.20;;;;;;4997758;28;20484;-77
2021/10/11 07:45:03;;;;;;;1.57;1.00;;;13.10;98.20;;;;;;4996938;28;20475;-80
2021/10/11 07:47:30;;;;;;;1.57;1.10;;;13.30;98.20;;;;;;4998828;28;20483;-77
2021/10/11 07:50:01;;;;;;;1.50;1.00;;;13.40;98.20;;;;;;4998850;28;20460;-77
2021/10/11 07:52:28;;;;;;;1.57;1.00;;;13.50;98.20;;;;;;4995857;28;20479;-80
2021/10/11 07:54:55;;;;;;;1.50;1.00;;;13.50;98.20;;;;;;4997411;28;20476;-77
2021/10/11 07:57:23;;;;;;;1.57;1.07;;;13.60;98.20;;;;;;4995083;28;20958;-76
2021/10/11 07:59:50;;;;;;;1.57;1.00;;;13.60;98.20;;;;;;4998315;28;20485;-80
2021/10/11 08:02:17;;;;;;;1.57;1.00;;;13.60;98.20;;;;;;4992411;28;20484;-78
2021/10/11 08:04:45;;;;;;;1.60;1.10;;;13.70;98.20;;;;;;4999028;28;20469;-77
2021/10/11 08:07:14;;;;;;;1.60;1.10;;;13.70;98.20;;;;;;4992118;28;21053;-78
2021/10/11 08:09:41;;;;;;;1.53;1.10;;;13.80;98.20;;;;;;4996783;28;20854;-76
2021/10/11 08:12:09;;;;;;;1.53;1.00;;;13.80;98.20;;;;;;4990927;28;20484;-77
2021/10/11 08:14:35;;;;;;;1.57;1.00;;;13.90;98.20;;;;;;4997889;28;20741;-76
2021/10/11 08:17:02;;;;;;;1.50;1.00;;;14.00;98.20;;;;;;4990334;28;20480;-79
2021/10/11 08:19:29;;;;;;;1.53;1.00;;;14.00;98.20;;;;;;4997749;28;20485;-75
2021/10/11 08:21:56;;;;;;;1.50;1.00;;;14.10;98.20;;;;;;4985031;28;20491;-75
2021/10/11 08:24:24;;;;;;;1.53;1.00;;;14.10;98.20;;;;;;5001126;28;20537;-75
2021/10/11 08:26:51;;;;;;;1.50;0.90;;;14.20;98.20;;;;;;4989564;28;20488;-76
2021/10/11 08:29:18;;;;;;;1.53;1.00;;;14.20;98.20;;;;;;5003266;28;20484;-75
2021/10/11 08:31:45;;;;;;;1.60;1.10;;;14.20;98.20;;;;;;4990950;28;20511;-75
2021/10/11 08:34:12;;;;;;;1.53;1.00;;;14.30;98.20;;;;;;5004764;28;20475;-76
2021/10/11 08:36:39;;;;;;;1.57;1.00;;;14.30;98.20;;;;;;4988829;28;20491;-75
2021/10/11 08:39:06;;;;;;;1.57;1.00;;;14.40;98.20;;;;;;5003434;28;20530;-74
2021/10/11 08:41:34;;;;;;;1.60;1.20;;;14.60;98.20;;;;;;4986972;28;20483;-76
2021/10/11 08:44:01;;;;;;;1.53;1.00;;;14.70;98.20;;;;;;5003656;28;20463;-76
2021/10/11 08:46:28;;;;;;;1.60;1.10;;;14.70;98.20;;;;;;4988561;28;20483;-76
2021/10/11 08:48:54;;;;;;;1.50;1.00;;;14.70;98.20;;;;;;5008034;28;20484;-75
2021/10/11 08:51:22;;;;;;;1.60;1.00;;;14.90;98.20;;;;;;4984597;28;20852;-76
2021/10/11 08:53:49;;;;;;;1.57;0.93;;;14.80;98.20;;;;;;5002160;28;20773;-75
2021/10/11 08:56:16;;;;;;;1.60;1.10;;;14.90;98.20;;;;;;4981663;28;20488;-75
2021/10/11 08:58:46;;;;;;;1.53;1.00;;;14.90;98.20;;;;;;5009692;28;20481;-76
2021/10/11 09:01:13;;;;;;;1.57;1.00;;;15.00;98.20;;;;;;4985218;28;20934;-75
2021/10/11 09:03:40;;;;;;;1.50;1.00;;;15.00;98.20;;;;;;5005570;28;20473;-75
2021/10/11 09:06:08;;;;;;;1.50;0.90;;;15.10;98.20;;;;;;4983517;28;20833;-75
2021/10/11 09:08:36;;;;;;;1.50;0.90;;;15.00;98.20;;;;;;5008697;28;20494;-77
2021/10/11 09:11:06;;;;;;;1.60;1.00;;;15.10;98.20;;;;;;4981612;28;20545;-75
2021/10/11 09:13:38;;;;;;;1.60;1.00;;;15.10;98.20;;;;;;5005928;28;20621;-74
2021/10/11 09:16:08;;;;;;;1.50;1.00;;;15.20;98.20;;;;;;4984917;28;21143;-75
2021/10/11 09:18:37;;;;;;;1.50;0.90;;;15.30;98.20;;;;;;5002401;28;20511;-74
2021/10/11 09:21:04;;;;;;;1.53;1.00;;;15.30;98.20;;;;;;4982638;28;20476;-75
2021/10/11 09:23:31;;;;;;;1.53;0.90;;;15.30;98.20;;;;;;5009311;28;20469;-75
2021/10/11 09:25:59;;;;;;;1.53;0.93;;;15.40;98.20;;;;;;4986219;28;20843;-75
2021/10/11 09:28:27;;;;;;;1.53;1.00;;;15.50;98.20;;;;;;5004049;28;20480;-74
2021/10/11 09:30:54;;;;;;;1.53;1.00;;;15.60;98.20;;;;;;4981867;28;20972;-75
2021/10/11 09:33:24;;;;;;;1.53;0.97;;;15.60;98.20;;;;;;5008322;28;20461;-74
2021/10/11 09:35:53;;;;;;;1.57;1.00;;;15.60;98.20;;;;;;4982712;28;20546;-75
2021/10/11 09:38:21;;;;;;;1.50;1.00;;;15.60;98.20;;;;;;5010488;28;20488;-75
2021/10/11 09:40:49;;;;;;;1.53;1.00;;;15.60;98.20;;;;;;4981310;28;20461;-75
2021/10/11 09:43:18;;;;;;;1.60;1.00;;;15.60;98.20;;;;;;5005664;28;20484;-75
2021/10/11 09:45:45;;;;;;;1.53;1.00;;;15.60;98.20;;;;;;4994915;28;20472;-76
2021/10/11 09:48:12;;;;;;;1.50;1.00;;;15.70;98.20;;;;;;4985288;28;20855;-75
2021/10/11 09:50:42;;;;;;;1.50;0.90;;;15.70;98.20;;;;;;4992171;28;20465;-74
2021/10/11 09:53:11;;;;;;;1.50;0.97;;;15.70;98.20;;;;;;4996677;28;20810;-75
2021/10/11 09:55:40;;;;;;;1.50;1.00;;;15.80;98.20;;;;;;4990440;28;20945;-75
2021/10/11 09:58:08;;;;;;;1.57;1.13;;;15.90;98.20;;;;;;5002856;28;20488;-75
2021/10/11 10:00:36;;;;;;;1.60;1.00;;;15.90;98.20;;;;;;4994127;28;20469;-74
2021/10/11 10:03:02;;;;;;;1.57;0.90;;;15.90;98.20;;;;;;5000229;28;20503;-75
2021/10/11 10:05:33;;;;;;;1.57;1.07;;;16.00;98.20;;;;;;4991755;28;20944;-75
2021/10/11 10:08:07;;;;;;;1.50;0.90;;;15.90;98.20;;;;;;5002909;28;20511;-75
2021/10/11 10:10:35;;;;;;;1.50;1.00;;;15.90;98.20;;;;;;4990228;28;20539;-75
2021/10/11 10:13:02;;;;;;;1.53;1.00;;;15.90;98.20;;;;;;4997971;28;20476;-76
2021/10/11 10:15:31;;;;;;;1.50;0.90;;;15.90;98.20;;;;;;4996540;28;20467;-75
2021/10/11 10:18:03;;;;;;;1.50;0.90;;;15.90;98.20;;;;;;4994496;28;20491;-75
2021/10/11 10:20:30;;;;;;;1.50;0.90;;;16.00;98.20;;;;;;4987693;28;20468;-74
2021/10/11 10:22:58;;;;;;;1.57;0.90;;;16.10;98.20;;;;;;4993722;28;20485;-74
2021/10/11 10:25:26;;;;;;;1.57;1.00;;;16.20;98.20;;;;;;4988965;28;20464;-75
2021/10/11 10:28:07;;;;;;;1.53;1.00;;;16.30;97.30;;;;;;4993205;28;20841;-75
2021/10/11 10:30:34;;;;;;;1.50;1.00;;;16.30;98.20;;;;;;4996634;28;20559;-75
2021/10/11 10:33:03;;;;;;;1.50;0.90;;;16.40;97.30;;;;;;4995096;28;20483;-75
2021/10/11 10:35:33;;;;;;;1.53;1.00;;;16.40;97.10;;;;;;4992911;28;20495;-75
2021/10/11 10:38:00;;;;;;;1.60;1.00;;;16.50;97.50;;;;;;4993992;28;20476;-75
2021/10/11 10:40:30;;;;;;;1.60;1.10;;;16.50;97.60;;;;;;4995155;28;20472;-75
2021/10/11 10:43:05;;;;;;;1.57;0.90;;;16.50;97.90;;;;;;4997142;28;20476;-75
2021/10/11 10:45:35;;;;;;;1.57;1.00;;;16.60;96.30;;;;;;4995565;28;20473;-75
2021/10/11 10:48:02;;;;;;;1.57;1.00;;;16.60;97.30;;;;;;5001020;28;20480;-75
2021/10/11 10:50:29;;;;;;;1.50;1.00;;;16.60;97.30;;;;;;4994639;28;20488;-75
2021/10/11 10:52:59;;;;;;;1.60;1.00;;;16.60;96.10;;;;;;5003777;28;20557;-75
2021/10/11 10:55:27;;;;;;;1.57;1.00;;;16.60;96.80;;;;;;4993969;28;20542;-75
2021/10/11 10:57:59;;;;;;;1.50;1.00;;;16.60;96.50;;;;;;5004443;28;20492;-75
2021/10/11 11:00:25;;;;;;;1.57;1.00;;;16.60;96.00;;;;;;4994009;28;20950;-75
2021/10/11 11:02:54;;;;;;;1.53;0.90;;;16.60;96.50;;;;;;5003196;28;21010;-75
2021/10/11 11:05:23;;;;;;;1.53;0.93;;;16.60;97.30;;;;;;4994357;28;20526;-76
2021/10/11 11:07:53;;;;;;;1.50;1.00;;;16.50;96.10;;;;;;5004579;28;20492;-75
2021/10/11 11:10:22;;;;;;;1.53;1.00;;;16.50;95.90;;;;;;4993098;28;20556;-76
2021/10/11 11:12:53;;;;;;;1.50;1.00;;;16.50;97.00;;;;;;4995989;28;20480;-75
2021/10/11 11:15:28;;;;;;;1.50;0.90;;;16.60;95.90;;;;;;5000356;28;20880;-75
2021/10/11 11:17:55;;;;;;;1.53;1.00;;;16.60;96.10;;;;;;4998802;28;21053;-75
2021/10/11 11:20:26;;;;;;;1.53;1.00;;;16.70;96.30;;;;;;4995496;28;20493;-75
2021/10/11 11:22:56;;;;;;;1.50;1.00;;;16.80;96.60;;;;;;4995131;28;20508;-75
2021/10/11 11:25:27;;;;;;;1.50;0.90;;;17.00;95.50;;;;;;4993782;28;20465;-75
2021/10/11 11:27:56;;;;;;;1.50;1.00;;;17.10;95.70;;;;;;4982916;28;20484;-75
2021/10/11 11:30:23;;;;;;;1.50;1.00;;;17.30;95.50;;;;;;4989449;28;20473;-75
2021/10/11 11:32:53;;;;;;;1.60;1.00;;;17.40;94.10;;;;;;4992622;28;21001;-75
2021/10/11 11:35:22;;;;;;;1.60;1.00;;;17.40;93.90;;;;;;4992023;28;20473;-74
2021/10/11 11:37:50;;;;;;;1.57;1.00;;;17.40;93.00;;;;;;4990196;28;20475;-75
2021/10/11 11:40:19;;;;;;;1.50;0.90;;;17.40;93.60;;;;;;4984236;28;20489;-77
2021/10/11 11:42:47;;;;;;;1.53;0.93;;;17.50;92.50;;;;;;4990377;28;20480;-78
2021/10/11 11:45:15;;;;;;;1.57;1.00;;;17.50;92.80;;;;;;4991121;28;20899;-75
2021/10/11 11:47:42;;;;;;;1.50;0.90;;;17.40;93.30;;;;;;4997608;28;20487;-77
2021/10/11 11:50:21;;;;;;;1.50;0.90;;;17.50;94.00;;;;;;4986383;28;20465;-76
2021/10/11 11:52:52;;;;;;;1.50;1.00;;;17.60;93.30;;;;;;5000444;28;20479;-75
2021/10/11 11:55:20;;;;;;;1.50;1.00;;;17.70;93.70;;;;;;4986308;28;20472;-75
2021/10/11 11:57:46;;;;;;;1.53;1.00;;;17.80;93.40;;;;;;4991280;28;20919;-78
2021/10/11 12:00:14;;;;;;;1.60;1.40;;;18.00;92.00;;;;;;4984679;28;20859;-75
2021/10/11 12:02:43;;;;;;;1.53;1.00;;;17.80;90.40;;;;;;5001974;28;20487;-74
2021/10/11 12:05:11;;;;;;;1.50;0.90;;;17.70;91.80;;;;;;4988356;28;20470;-77
2021/10/11 12:07:42;;;;;;;1.50;1.00;;;17.80;91.90;;;;;;4991572;28;20588;-77
2021/10/11 12:10:11;;;;;;;1.50;0.90;;;17.80;92.40;;;;;;4992788;28;20544;-77
2021/10/11 12:12:38;;;;;;;1.53;1.00;;;18.00;91.50;;;;;;4991104;28;20472;-75
2021/10/11 12:15:06;;;;;;;1.50;1.00;;;18.10;91.40;;;;;;4999390;28;20460;-77
2021/10/11 12:17:34;;;;;;;1.53;1.00;;;18.20;90.70;;;;;;4991413;28;20483;-76
2021/10/11 12:20:01;;;;;;;1.50;0.90;;;18.40;91.80;;;;;;4995402;28;20551;-77
2021/10/11 12:22:29;;;;;;;1.50;1.00;;;18.50;89.70;;;;;;4991329;28;21075;-76
2021/10/11 12:25:01;;;;;;;1.50;0.90;;;18.50;90.00;;;;;;4999283;28;20850;-77
2021/10/11 12:27:28;;;;;;;1.53;0.90;;;18.60;89.80;;;;;;4990216;28;20491;-76
2021/10/11 12:29:55;;;;;;;1.50;0.97;;;18.70;89.00;;;;;;5002055;28;20941;-74
2021/10/11 12:32:30;;;;;;;1.50;0.90;;;18.70;88.00;;;;;;4990948;28;20997;-74
2021/10/11 12:34:58;;;;;;;1.50;0.90;;;18.50;89.00;;;;;;4997252;28;20968;-76
2021/10/11 12:37:26;;;;;;;1.53;0.90;;;18.60;88.80;;;;;;4993984;28;20478;-74
2021/10/11 12:39:57;;;;;;;1.50;0.97;;;18.70;89.30;;;;;;5004575;28;20493;-75
2021/10/11 12:42:26;;;;;;;1.50;0.90;;;18.90;88.70;;;;;;4986533;28;21298;-74
2021/10/11 12:44:56;;;;;;;1.53;0.90;;;19.10;88.20;;;;;;4999475;28;20476;-74
2021/10/11 12:47:24;;;;;;;1.50;0.90;;;19.00;86.90;;;;;;4988496;28;20507;-74
2021/10/11 12:49:54;;;;;;;1.50;0.90;;;18.90;86.40;;;;;;4994909;28;21167;-77
2021/10/11 12:52:32;;;;;;;1.50;0.90;;;18.80;87.60;;;;;;4996341;28;21049;-77
2021/10/11 12:55:06;;;;;;;1.53;0.90;;;18.60;86.90;;;;;;4996539;28;20489;-75
2021/10/11 12:57:35;;;;;;;1.50;0.90;;;18.60;87.80;;;;;;4995155;28;20494;-75
2021/10/11 13:00:02;;;;;;;1.50;0.90;;;18.30;86.50;;;;;;4995767;28;20461;-75
2021/10/11 13:02:28;;;;;;;1.50;0.90;;;18.10;88.00;;;;;;4991513;28;20950;-75